sensor_id;sensor_type;location;lat;lon;timestamp;pressure;altitude;pressure_sealevel;temperature;humidity
56402;BME280;42299;35.160;26.100;2024-03-17T00:04:44;101444.03;;;12.65;100.00
56402;BME280;42299;35.160;26.100;2024-03-17T00:10:07;101442.06;;;12.55;100.00
56402;BME280;42299;35.160;26.100;2024-03-17T00:15:31;101438.53;;;12.53;100.00
56402;BME280;42299;35.160;26.100;2024-03-17T00:20:55;101441.03;;;12.46;100.00
56402;BME280;42299;35.160;26.100;2024-03-17T00:26:18;101437.53;;;12.48;100.00
56402;BME280;42299;35.160;26.100;2024-03-17T00:31:41;101424.16;;;12.42;100.00
56402;BME280;42299;35.160;26.100;2024-03-17T00:37:05;101424.16;;;12.42;100.00
56402;BME280;42299;35.160;26.100;2024-03-17T00:42:29;101420.63;;;12.42;100.00
56402;BME280;42299;35.160;26.100;2024-03-17T00:47:51;101411.03;;;12.47;100.00
56402;BME280;42299;35.160;26.100;2024-03-17T00:53:16;101404.75;;;12.42;100.00
56402;BME280;42299;35.160;26.100;2024-03-17T00:58:38;101407.38;;;12.40;100.00
56402;BME280;42299;35.160;26.100;2024-03-17T01:04:01;101408.25;;;12.39;100.00
56402;BME280;42299;35.160;26.100;2024-03-17T01:09:25;101390.53;;;12.36;100.00
56402;BME280;42299;35.160;26.100;2024-03-17T01:14:47;101382.28;;;12.20;100.00
56402;BME280;42299;35.160;26.100;2024-03-17T01:20:10;101374.91;;;12.04;100.00
56402;BME280;42299;35.160;26.100;2024-03-17T01:25:34;101379.88;;;11.88;100.00
56402;BME280;42299;35.160;26.100;2024-03-17T01:30:58;101375.53;;;11.90;100.00
56402;BME280;42299;35.160;26.100;2024-03-17T01:36:20;101379.84;;;11.85;100.00
56402;BME280;42299;35.160;26.100;2024-03-17T01:41:44;101374.50;;;11.84;100.00
56402;BME280;42299;35.160;26.100;2024-03-17T01:47:07;101371.09;;;11.89;100.00
56402;BME280;42299;35.160;26.100;2024-03-17T01:52:30;101357.97;;;11.95;100.00
56402;BME280;42299;35.160;26.100;2024-03-17T01:57:54;101347.66;;;12.08;100.00
56402;BME280;42299;35.160;26.100;2024-03-17T02:03:17;101353.81;;;12.08;100.00
56402;BME280;42299;35.160;26.100;2024-03-17T02:08:49;101345.38;;;11.82;100.00
56402;BME280;42299;35.160;26.100;2024-03-17T02:14:14;101347.94;;;11.78;100.00
56402;BME280;42299;35.160;26.100;2024-03-17T02:19:38;101351.28;;;11.71;100.00
56402;BME280;42299;35.160;26.100;2024-03-17T02:25:02;101351.19;;;11.66;100.00
56402;BME280;42299;35.160;26.100;2024-03-17T02:30:24;101340.13;;;11.84;100.00
56402;BME280;42299;35.160;26.100;2024-03-17T02:35:47;101342.47;;;11.70;100.00
56402;BME280;42299;35.160;26.100;2024-03-17T02:41:11;101352.06;;;11.65;100.00
56402;BME280;42299;35.160;26.100;2024-03-17T02:46:33;101351.97;;;11.62;100.00
56402;BME280;42299;35.160;26.100;2024-03-17T02:51:56;101350.28;;;11.64;100.00
56402;BME280;42299;35.160;26.100;2024-03-17T02:57:22;101352.88;;;11.63;100.00
56402;BME280;42299;35.160;26.100;2024-03-17T03:02:45;101355.50;;;11.61;100.00
56402;BME280;42299;35.160;26.100;2024-03-17T03:08:08;101350.44;;;11.72;100.00
56402;BME280;42299;35.160;26.100;2024-03-17T03:13:32;101342.81;;;11.85;100.00
56402;BME280;42299;35.160;26.100;2024-03-17T03:18:54;101331.47;;;11.92;100.00
56402;BME280;42299;35.160;26.100;2024-03-17T03:24:17;101334.91;;;11.87;100.00
56402;BME280;42299;35.160;26.100;2024-03-17T03:29:41;101337.91;;;12.05;100.00
56402;BME280;42299;35.160;26.100;2024-03-17T03:35:04;101331.31;;;12.31;100.00
56402;BME280;42299;35.160;26.100;2024-03-17T03:40:27;101334.72;;;12.24;100.00
56402;BME280;42299;35.160;26.100;2024-03-17T03:45:51;101337.41;;;12.26;100.00
56402;BME280;42299;35.160;26.100;2024-03-17T03:51:13;101330.50;;;12.35;100.00
56402;BME280;42299;35.160;26.100;2024-03-17T03:56:36;101337.53;;;12.35;100.00
56402;BME280;42299;35.160;26.100;2024-03-17T04:02:00;101348.56;;;12.10;100.00
56402;BME280;42299;35.160;26.100;2024-03-17T04:07:23;101338.44;;;11.89;100.00
56402;BME280;42299;35.160;26.100;2024-03-17T04:12:47;101349.25;;;12.00;100.00
56402;BME280;42299;35.160;26.100;2024-03-17T04:18:11;101347.91;;;12.23;100.00
56402;BME280;42299;35.160;26.100;2024-03-17T04:23:33;101351.94;;;12.49;100.00
56402;BME280;42299;35.160;26.100;2024-03-17T04:28:56;101341.47;;;12.57;100.00
56402;BME280;42299;35.160;26.100;2024-03-17T04:34:20;101347.69;;;12.59;100.00
56402;BME280;42299;35.160;26.100;2024-03-17T04:39:44;101353.97;;;12.65;100.00
56402;BME280;42299;35.160;26.100;2024-03-17T04:45:08;101356.09;;;12.86;100.00
56402;BME280;42299;35.160;26.100;2024-03-17T04:50:32;101344.94;;;13.08;100.00
56402;BME280;42299;35.160;26.100;2024-03-17T04:56:02;101351.88;;;13.62;100.00
56402;BME280;42299;35.160;26.100;2024-03-17T05:01:25;101350.81;;;13.48;100.00
56402;BME280;42299;35.160;26.100;2024-03-17T05:06:50;101356.78;;;13.33;100.00
56402;BME280;42299;35.160;26.100;2024-03-17T05:12:13;101360.56;;;13.49;100.00
56402;BME280;42299;35.160;26.100;2024-03-17T05:17:35;101356.69;;;13.93;100.00
56402;BME280;42299;35.160;26.100;2024-03-17T05:22:59;101356.25;;;14.35;100.00
56402;BME280;42299;35.160;26.100;2024-03-17T05:28:22;101349.53;;;14.72;100.00
56402;BME280;42299;35.160;26.100;2024-03-17T05:33:44;101348.88;;;15.05;100.00
56402;BME280;42299;35.160;26.100;2024-03-17T05:39:08;101345.47;;;15.25;100.00
56402;BME280;42299;35.160;26.100;2024-03-17T05:44:31;101358.06;;;15.53;100.00
56402;BME280;42299;35.160;26.100;2024-03-17T05:50:10;101351.22;;;16.20;100.00
56402;BME280;42299;35.160;26.100;2024-03-17T05:55:36;101350.25;;;15.92;100.00
56402;BME280;42299;35.160;26.100;2024-03-17T06:01:01;101364.38;;;15.76;100.00
56402;BME280;42299;35.160;26.100;2024-03-17T06:06:24;101362.69;;;15.97;100.00
56402;BME280;42299;35.160;26.100;2024-03-17T06:11:48;101363.66;;;16.20;100.00
56402;BME280;42299;35.160;26.100;2024-03-17T06:17:11;101361.88;;;16.35;100.00
56402;BME280;42299;35.160;26.100;2024-03-17T06:22:33;101364.59;;;16.46;100.00
56402;BME280;42299;35.160;26.100;2024-03-17T06:27:57;101358.22;;;19.09;100.00
56402;BME280;42299;35.160;26.100;2024-03-17T06:33:22;101358.69;;;20.78;100.00
56402;BME280;42299;35.160;26.100;2024-03-17T06:38:45;101361.25;;;21.36;100.00
56402;BME280;42299;35.160;26.100;2024-03-17T06:44:09;101361.53;;;24.13;95.22
56402;BME280;42299;35.160;26.100;2024-03-17T06:49:31;101358.25;;;24.33;93.69
56402;BME280;42299;35.160;26.100;2024-03-17T06:54:54;101363.06;;;25.55;77.57
56402;BME280;42299;35.160;26.100;2024-03-17T07:00:18;101356.38;;;24.63;86.18
56402;BME280;42299;35.160;26.100;2024-03-17T07:05:51;101365.72;;;24.53;82.44
56402;BME280;42299;35.160;26.100;2024-03-17T07:11:14;101363.53;;;26.14;63.21
56402;BME280;42299;35.160;26.100;2024-03-17T07:16:40;101365.78;;;23.93;85.58
56402;BME280;42299;35.160;26.100;2024-03-17T07:22:02;101357.44;;;26.33;63.83
56402;BME280;42299;35.160;26.100;2024-03-17T07:27:25;101360.41;;;24.50;73.29
56402;BME280;42299;35.160;26.100;2024-03-17T07:32:49;101363.31;;;22.11;94.43
56402;BME280;42299;35.160;26.100;2024-03-17T07:38:12;101358.19;;;24.89;67.37
56402;BME280;42299;35.160;26.100;2024-03-17T07:43:36;101345.47;;;26.15;53.91
56402;BME280;42299;35.160;26.100;2024-03-17T07:49:00;101360.59;;;24.72;57.97
56402;BME280;42299;35.160;26.100;2024-03-17T07:54:23;101340.88;;;22.49;80.05
56402;BME280;42299;35.160;26.100;2024-03-17T07:59:46;101356.31;;;23.13;78.03
56402;BME280;42299;35.160;26.100;2024-03-17T08:05:13;101359.16;;;22.72;80.27
56402;BME280;42299;35.160;26.100;2024-03-17T08:10:38;101358.63;;;22.57;83.58
56402;BME280;42299;35.160;26.100;2024-03-17T08:16:02;101350.78;;;22.47;81.59
56402;BME280;42299;35.160;26.100;2024-03-17T08:21:27;101344.94;;;23.36;72.18
56402;BME280;42299;35.160;26.100;2024-03-17T08:26:50;101361.88;;;25.39;54.69
56402;BME280;42299;35.160;26.100;2024-03-17T08:32:13;101346.41;;;26.59;51.45
56402;BME280;42299;35.160;26.100;2024-03-17T08:37:39;101332.88;;;27.03;48.16
56402;BME280;42299;35.160;26.100;2024-03-17T08:43:01;101336.72;;;26.75;49.13
56402;BME280;42299;35.160;26.100;2024-03-17T08:48:24;101344.81;;;24.59;61.54
56402;BME280;42299;35.160;26.100;2024-03-17T08:53:48;101328.59;;;25.12;56.34
56402;BME280;42299;35.160;26.100;2024-03-17T08:59:11;101334.81;;;25.65;56.06
56402;BME280;42299;35.160;26.100;2024-03-17T09:04:34;101322.56;;;28.64;44.05
56402;BME280;42299;35.160;26.100;2024-03-17T09:09:58;101332.25;;;28.88;43.01
56402;BME280;42299;35.160;26.100;2024-03-17T09:15:20;101340.13;;;31.34;38.49
56402;BME280;42299;35.160;26.100;2024-03-17T09:20:43;101330.97;;;30.44;38.84
56402;BME280;42299;35.160;26.100;2024-03-17T09:26:10;101331.75;;;31.51;37.23
56402;BME280;42299;35.160;26.100;2024-03-17T09:31:34;101331.75;;;28.25;42.52
56402;BME280;42299;35.160;26.100;2024-03-17T09:36:57;101319.75;;;30.80;37.40
56402;BME280;42299;35.160;26.100;2024-03-17T09:42:21;101334.63;;;29.11;40.43
56402;BME280;42299;35.160;26.100;2024-03-17T09:47:44;101333.94;;;31.16;36.22
56402;BME280;42299;35.160;26.100;2024-03-17T09:53:13;101329.91;;;31.08;36.68
56402;BME280;42299;35.160;26.100;2024-03-17T09:58:39;101337.59;;;31.45;35.50
56402;BME280;42299;35.160;26.100;2024-03-17T10:04:02;101341.84;;;29.12;38.33
56402;BME280;42299;35.160;26.100;2024-03-17T10:09:25;101333.38;;;31.40;34.49
56402;BME280;42299;35.160;26.100;2024-03-17T10:15:00;101336.25;;;29.32;38.02
56402;BME280;42299;35.160;26.100;2024-03-17T10:20:26;101320.31;;;30.39;34.22
56402;BME280;42299;35.160;26.100;2024-03-17T10:25:49;101318.06;;;26.89;39.01
56402;BME280;42299;35.160;26.100;2024-03-17T10:31:13;101309.81;;;27.53;39.53
56402;BME280;42299;35.160;26.100;2024-03-17T10:36:36;101305.19;;;27.35;39.90
56402;BME280;42299;35.160;26.100;2024-03-17T10:42:00;101302.47;;;28.49;37.19
56402;BME280;42299;35.160;26.100;2024-03-17T10:47:26;101294.00;;;27.82;38.68
56402;BME280;42299;35.160;26.100;2024-03-17T10:52:50;101290.75;;;27.34;39.00
56402;BME280;42299;35.160;26.100;2024-03-17T10:58:21;101289.47;;;25.72;40.29
56402;BME280;42299;35.160;26.100;2024-03-17T11:03:47;101287.56;;;27.05;39.89
56402;BME280;42299;35.160;26.100;2024-03-17T11:09:15;101284.75;;;28.04;37.50
56402;BME280;42299;35.160;26.100;2024-03-17T11:14:38;101281.81;;;27.51;38.64
56402;BME280;42299;35.160;26.100;2024-03-17T11:20:15;101284.94;;;26.61;39.90
56402;BME280;42299;35.160;26.100;2024-03-17T11:25:39;101273.91;;;25.06;44.20
56402;BME280;42299;35.160;26.100;2024-03-17T11:31:02;101265.81;;;25.29;44.86
56402;BME280;42299;35.160;26.100;2024-03-17T11:36:46;101267.88;;;24.97;45.94
56402;BME280;42299;35.160;26.100;2024-03-17T11:42:13;101258.59;;;24.80;46.42
56402;BME280;42299;35.160;26.100;2024-03-17T11:47:39;101246.59;;;23.80;49.87
56402;BME280;42299;35.160;26.100;2024-03-17T11:53:09;101246.25;;;23.63;52.79
56402;BME280;42299;35.160;26.100;2024-03-17T11:58:33;101248.13;;;23.89;50.60
56402;BME280;42299;35.160;26.100;2024-03-17T12:03:58;101251.97;;;23.20;52.46
56402;BME280;42299;35.160;26.100;2024-03-17T12:09:27;101247.16;;;22.64;55.64
56402;BME280;42299;35.160;26.100;2024-03-17T12:14:51;101235.59;;;22.27;59.47
56402;BME280;42299;35.160;26.100;2024-03-17T12:20:17;101227.09;;;22.08;61.81
56402;BME280;42299;35.160;26.100;2024-03-17T12:25:46;101229.19;;;21.56;64.35
56402;BME280;42299;35.160;26.100;2024-03-17T12:31:09;101223.25;;;21.80;66.31
56402;BME280;42299;35.160;26.100;2024-03-17T12:36:31;101221.25;;;22.60;63.27
56402;BME280;42299;35.160;26.100;2024-03-17T12:42:04;101229.91;;;23.05;61.66
56402;BME280;42299;35.160;26.100;2024-03-17T12:47:28;101205.88;;;22.98;62.06
56402;BME280;42299;35.160;26.100;2024-03-17T12:52:55;101208.69;;;22.61;64.78
56402;BME280;42299;35.160;26.100;2024-03-17T12:58:19;101202.38;;;22.28;68.01
56402;BME280;42299;35.160;26.100;2024-03-17T13:04:05;101201.16;;;22.41;68.77
56402;BME280;42299;35.160;26.100;2024-03-17T13:09:29;101197.03;;;21.90;71.98
56402;BME280;42299;35.160;26.100;2024-03-17T13:14:53;101191.25;;;21.69;75.97
56402;BME280;42299;35.160;26.100;2024-03-17T13:20:16;101202.78;;;21.74;77.17
56402;BME280;42299;35.160;26.100;2024-03-17T13:25:39;101201.28;;;21.61;78.12
56402;BME280;42299;35.160;26.100;2024-03-17T13:31:07;101202.00;;;21.29;83.37
56402;BME280;42299;35.160;26.100;2024-03-17T13:36:34;101193.88;;;21.32;81.57
56402;BME280;42299;35.160;26.100;2024-03-17T13:41:57;101198.00;;;21.05;83.22
56402;BME280;42299;35.160;26.100;2024-03-17T13:47:25;101190.97;;;21.00;85.72
56402;BME280;42299;35.160;26.100;2024-03-17T13:52:47;101187.41;;;20.98;84.89
56402;BME280;42299;35.160;26.100;2024-03-17T13:58:10;101182.09;;;20.49;85.96
56402;BME280;42299;35.160;26.100;2024-03-17T14:03:34;101185.31;;;20.17;89.04
56402;BME280;42299;35.160;26.100;2024-03-17T14:08:57;101183.97;;;19.92;91.13
56402;BME280;42299;35.160;26.100;2024-03-17T14:14:20;101187.41;;;20.00;89.43
56402;BME280;42299;35.160;26.100;2024-03-17T14:19:44;101175.97;;;19.88;87.83
56402;BME280;42299;35.160;26.100;2024-03-17T14:25:07;101170.78;;;19.78;89.40
56402;BME280;42299;35.160;26.100;2024-03-17T14:30:30;101177.22;;;19.66;90.86
56402;BME280;42299;35.160;26.100;2024-03-17T14:35:57;101185.97;;;19.11;95.74
56402;BME280;42299;35.160;26.100;2024-03-17T14:41:20;101184.78;;;18.62;99.84
56402;BME280;42299;35.160;26.100;2024-03-17T14:46:47;101179.53;;;18.47;100.00
56402;BME280;42299;35.160;26.100;2024-03-17T14:52:13;101177.91;;;18.33;100.00
56402;BME280;42299;35.160;26.100;2024-03-17T14:57:36;101180.69;;;18.20;100.00
56402;BME280;42299;35.160;26.100;2024-03-17T15:02:59;101173.78;;;17.96;100.00
56402;BME280;42299;35.160;26.100;2024-03-17T15:08:23;101185.47;;;17.80;100.00
56402;BME280;42299;35.160;26.100;2024-03-17T15:13:45;101176.66;;;17.66;100.00
56402;BME280;42299;35.160;26.100;2024-03-17T15:19:08;101166.91;;;17.52;100.00
56402;BME280;42299;35.160;26.100;2024-03-17T15:24:32;101168.81;;;17.38;100.00
56402;BME280;42299;35.160;26.100;2024-03-17T15:29:55;101180.47;;;17.19;100.00
56402;BME280;42299;35.160;26.100;2024-03-17T15:35:18;101176.94;;;17.08;100.00
56402;BME280;42299;35.160;26.100;2024-03-17T15:40:42;101177.91;;;16.99;100.00
56402;BME280;42299;35.160;26.100;2024-03-17T15:46:07;101177.03;;;16.88;100.00
56402;BME280;42299;35.160;26.100;2024-03-17T15:51:29;101180.69;;;16.64;100.00
56402;BME280;42299;35.160;26.100;2024-03-17T15:56:54;101185.13;;;16.43;100.00
56402;BME280;42299;35.160;26.100;2024-03-17T16:02:17;101182.47;;;16.21;100.00
56402;BME280;42299;35.160;26.100;2024-03-17T16:07:39;101176.25;;;16.15;100.00
56402;BME280;42299;35.160;26.100;2024-03-17T16:13:03;101177.16;;;15.99;100.00
56402;BME280;42299;35.160;26.100;2024-03-17T16:18:26;101178.94;;;15.81;100.00
56402;BME280;42299;35.160;26.100;2024-03-17T16:23:52;101189.56;;;15.71;100.00
56402;BME280;42299;35.160;26.100;2024-03-17T16:29:16;101191.28;;;15.52;100.00
56402;BME280;42299;35.160;26.100;2024-03-17T16:34:39;101188.56;;;15.37;100.00
56402;BME280;42299;35.160;26.100;2024-03-17T16:40:02;101196.50;;;15.20;100.00
56402;BME280;42299;35.160;26.100;2024-03-17T16:45:28;101200.84;;;15.01;100.00
56402;BME280;42299;35.160;26.100;2024-03-17T16:50:50;101197.25;;;14.87;100.00
56402;BME280;42299;35.160;26.100;2024-03-17T16:56:14;101202.53;;;14.81;100.00
56402;BME280;42299;35.160;26.100;2024-03-17T17:01:38;101201.59;;;14.74;100.00
56402;BME280;42299;35.160;26.100;2024-03-17T17:07:02;101207.78;;;14.72;100.00
56402;BME280;42299;35.160;26.100;2024-03-17T17:12:26;101199.78;;;14.63;100.00
56402;BME280;42299;35.160;26.100;2024-03-17T17:17:50;101204.13;;;14.55;100.00
56402;BME280;42299;35.160;26.100;2024-03-17T17:23:15;101198.03;;;14.68;100.00
56402;BME280;42299;35.160;26.100;2024-03-17T17:28:39;101194.47;;;14.70;100.00
56402;BME280;42299;35.160;26.100;2024-03-17T17:34:03;101201.59;;;14.74;100.00
56402;BME280;42299;35.160;26.100;2024-03-17T17:39:26;101204.22;;;14.71;100.00
56402;BME280;42299;35.160;26.100;2024-03-17T17:44:50;101215.72;;;14.66;100.00
56402;BME280;42299;35.160;26.100;2024-03-17T17:50:14;101221.13;;;14.77;100.00
56402;BME280;42299;35.160;26.100;2024-03-17T17:55:37;101218.53;;;14.93;100.00
56402;BME280;42299;35.160;26.100;2024-03-17T18:01:00;101222.03;;;14.86;100.00
56402;BME280;42299;35.160;26.100;2024-03-17T18:06:24;101223.75;;;14.78;100.00
56402;BME280;42299;35.160;26.100;2024-03-17T18:11:47;101220.34;;;14.96;100.00
56402;BME280;42299;35.160;26.100;2024-03-17T18:17:09;101216.72;;;14.85;100.00
56402;BME280;42299;35.160;26.100;2024-03-17T18:22:39;101215.91;;;15.01;100.00
56402;BME280;42299;35.160;26.100;2024-03-17T18:28:01;101224.63;;;14.77;100.00
56402;BME280;42299;35.160;26.100;2024-03-17T18:33:24;101221.06;;;14.69;100.00
56402;BME280;42299;35.160;26.100;2024-03-17T18:38:48;101219.19;;;14.57;100.00
56402;BME280;42299;35.160;26.100;2024-03-17T18:44:13;101222.69;;;14.47;100.00
56402;BME280;42299;35.160;26.100;2024-03-17T18:49:36;101220.91;;;14.51;100.00
56402;BME280;42299;35.160;26.100;2024-03-17T18:55:00;101220.09;;;14.58;100.00
56402;BME280;42299;35.160;26.100;2024-03-17T19:00:23;101217.47;;;14.61;100.00
56402;BME280;42299;35.160;26.100;2024-03-17T19:05:48;101213.84;;;14.53;100.00
56402;BME280;42299;35.160;26.100;2024-03-17T19:11:18;101213.81;;;14.42;100.00
56402;BME280;42299;35.160;26.100;2024-03-17T19:16:43;101207.72;;;14.60;100.00
56402;BME280;42299;35.160;26.100;2024-03-17T19:22:06;101209.53;;;14.67;100.00
56402;BME280;42299;35.160;26.100;2024-03-17T19:27:30;101206.91;;;14.73;100.00
56402;BME280;42299;35.160;26.100;2024-03-17T19:32:52;101215.97;;;15.14;100.00
56402;BME280;42299;35.160;26.100;2024-03-17T19:38:15;101209.84;;;15.34;100.00
56402;BME280;42299;35.160;26.100;2024-03-17T19:43:40;101234.53;;;15.05;100.00
56402;BME280;42299;35.160;26.100;2024-03-17T19:49:05;101204.03;;;14.40;100.00
56402;BME280;42299;35.160;26.100;2024-03-17T19:54:29;101217.38;;;14.47;100.00
56402;BME280;42299;35.160;26.100;2024-03-17T19:59:53;101217.94;;;14.10;100.00
56402;BME280;42299;35.160;26.100;2024-03-17T20:05:15;101206.38;;;14.05;100.00
56402;BME280;42299;35.160;26.100;2024-03-17T20:10:39;101203.81;;;14.15;100.00
56402;BME280;42299;35.160;26.100;2024-03-17T20:16:06;101206.69;;;14.40;100.00
56402;BME280;42299;35.160;26.100;2024-03-17T20:21:40;101220.97;;;14.54;100.00
56402;BME280;42299;35.160;26.100;2024-03-17T20:27:03;101233.97;;;14.22;100.00
56402;BME280;42299;35.160;26.100;2024-03-17T20:32:27;101234.63;;;13.98;100.00
56402;BME280;42299;35.160;26.100;2024-03-17T20:37:50;101229.31;;;13.98;100.00
56402;BME280;42299;35.160;26.100;2024-03-17T20:43:13;101222.25;;;13.98;100.00
56402;BME280;42299;35.160;26.100;2024-03-17T20:48:37;101224.97;;;14.06;100.00
56402;BME280;42299;35.160;26.100;2024-03-17T20:54:00;101228.50;;;14.05;100.00
56402;BME280;42299;35.160;26.100;2024-03-17T20:59:24;101234.69;;;14.06;100.00
56402;BME280;42299;35.160;26.100;2024-03-17T21:04:48;101239.97;;;14.01;100.00
56402;BME280;42299;35.160;26.100;2024-03-17T21:10:12;101235.50;;;13.98;100.00
56402;BME280;42299;35.160;26.100;2024-03-17T21:15:35;101230.84;;;13.72;100.00
56402;BME280;42299;35.160;26.100;2024-03-17T21:21:03;101232.25;;;13.38;100.00
56402;BME280;42299;35.160;26.100;2024-03-17T21:26:26;101226.75;;;13.23;100.00
56402;BME280;42299;35.160;26.100;2024-03-17T21:31:49;101228.28;;;13.08;100.00
56402;BME280;42299;35.160;26.100;2024-03-17T21:37:13;101227.13;;;12.85;100.00
56402;BME280;42299;35.160;26.100;2024-03-17T21:42:36;101228.63;;;12.66;100.00
56402;BME280;42299;35.160;26.100;2024-03-17T21:47:59;101221.19;;;12.43;100.00
56402;BME280;42299;35.160;26.100;2024-03-17T21:53:23;101219.09;;;12.22;100.00
56402;BME280;42299;35.160;26.100;2024-03-17T21:58:46;101212.78;;;12.15;100.00
56402;BME280;42299;35.160;26.100;2024-03-17T22:04:08;101209.13;;;12.06;100.00
56402;BME280;42299;35.160;26.100;2024-03-17T22:09:33;101209.06;;;12.01;100.00
56402;BME280;42299;35.160;26.100;2024-03-17T22:14:57;101195.59;;;11.89;100.00
56402;BME280;42299;35.160;26.100;2024-03-17T22:20:19;101199.84;;;11.79;100.00
56402;BME280;42299;35.160;26.100;2024-03-17T22:25:51;101198.94;;;11.77;100.00
56402;BME280;42299;35.160;26.100;2024-03-17T22:31:14;101188.44;;;11.83;100.00
56402;BME280;42299;35.160;26.100;2024-03-17T22:36:36;101195.47;;;11.80;100.00
56402;BME280;42299;35.160;26.100;2024-03-17T22:42:00;101188.44;;;11.83;100.00
56402;BME280;42299;35.160;26.100;2024-03-17T22:47:23;101185.88;;;11.86;100.00
56402;BME280;42299;35.160;26.100;2024-03-17T22:52:45;101181.50;;;11.90;100.00
56402;BME280;42299;35.160;26.100;2024-03-17T22:58:09;101163.28;;;12.08;100.00
56402;BME280;42299;35.160;26.100;2024-03-17T23:03:32;101156.38;;;12.18;100.00
56402;BME280;42299;35.160;26.100;2024-03-17T23:08:55;101147.91;;;12.42;100.00
56402;BME280;42299;35.160;26.100;2024-03-17T23:14:19;101135.94;;;12.69;100.00
56402;BME280;42299;35.160;26.100;2024-03-17T23:19:43;101132.72;;;12.95;100.00
56402;BME280;42299;35.160;26.100;2024-03-17T23:25:06;101122.97;;;12.94;100.00
56402;BME280;42299;35.160;26.100;2024-03-17T23:30:30;101128.38;;;13.01;100.00
56402;BME280;42299;35.160;26.100;2024-03-17T23:35:54;101116.47;;;13.38;100.00
56402;BME280;42299;35.160;26.100;2024-03-17T23:41:16;101114.75;;;13.46;100.00
56402;BME280;42299;35.160;26.100;2024-03-17T23:46:41;101103.97;;;13.30;100.00
56402;BME280;42299;35.160;26.100;2024-03-17T23:52:04;101099.63;;;13.36;100.00
56402;BME280;42299;35.160;26.100;2024-03-17T23:57:27;101086.94;;;13.08;100.00
